createdAt,value
2023-09-21T00:02:05.863Z,18.79
2023-09-21T00:04:38.471Z,19.95
2023-09-21T00:07:11.679Z,18.15
2023-09-21T00:09:44.075Z,17.83
2023-09-21T00:12:16.399Z,17.96
2023-09-21T00:14:49.037Z,17.64
2023-09-21T00:17:24.623Z,19.56
2023-09-21T00:19:57.458Z,19.41
2023-09-21T00:22:29.914Z,18.05
2023-09-21T00:25:04.637Z,18.37
2023-09-21T00:27:37.034Z,18.24
2023-09-21T00:30:10.687Z,18.49
2023-09-21T00:32:46.426Z,19.74
2023-09-21T00:35:20.074Z,19.24
2023-09-21T00:37:52.460Z,19.18
2023-09-21T00:40:26.426Z,19.86
2023-09-21T00:42:59.122Z,19.05
2023-09-21T00:45:31.705Z,18.71
2023-09-21T00:48:10.766Z,19.21
2023-09-21T00:50:46.392Z,18.64
2023-09-21T00:53:20.626Z,18.34
2023-09-21T00:55:58.295Z,19.02
2023-09-21T00:58:32.791Z,18.24
2023-09-21T01:01:07.079Z,18.46
2023-09-21T01:03:44.828Z,18.54
2023-09-21T01:06:19.834Z,18.99
2023-09-21T01:08:52.915Z,18.38
2023-09-21T01:11:26.593Z,19.07
2023-09-21T01:13:59.095Z,18.27
2023-09-21T01:16:31.616Z,19.11
2023-09-21T01:19:06.712Z,19.05
2023-09-21T01:21:44.892Z,19.90
2023-09-21T01:24:23.909Z,20.24
2023-09-21T01:26:56.760Z,18.39
2023-09-21T01:29:31.294Z,20.23
2023-09-21T01:32:04.343Z,20.10
2023-09-21T01:34:37.045Z,18.01
2023-09-21T01:37:09.767Z,18.77
2023-09-21T01:39:45.142Z,18.81
2023-09-21T01:42:17.533Z,19.71
2023-09-21T01:44:50.170Z,18.12
2023-09-21T01:47:22.607Z,18.66
2023-09-21T01:49:55.249Z,17.91
2023-09-21T01:52:28.764Z,18.54
2023-09-21T01:55:07.809Z,18.63
2023-09-21T01:57:40.075Z,18.96
2023-09-21T02:00:22.761Z,18.56
2023-09-21T02:02:55.884Z,19.44
2023-09-21T02:05:29.242Z,17.92
2023-09-21T02:08:01.556Z,18.89
2023-09-21T02:10:36.715Z,19.34
2023-09-21T02:13:10.236Z,19.16
2023-09-21T02:15:45.182Z,18.43
2023-09-21T02:18:17.544Z,17.01
2023-09-21T02:20:52.717Z,19.25
2023-09-21T02:23:27.562Z,18.40
2023-09-21T02:26:03.275Z,17.27
2023-09-21T02:28:35.589Z,17.63
2023-09-21T02:31:08.074Z,19.15
2023-09-21T02:33:43.481Z,17.82
2023-09-21T02:36:21.705Z,19.12
2023-09-21T02:38:54.299Z,19.44
2023-09-21T02:41:29.280Z,18.81
2023-09-21T02:44:01.743Z,19.12
2023-09-21T02:46:34.121Z,19.24
2023-09-21T02:49:07.529Z,18.26
2023-09-21T02:51:40.485Z,19.47
2023-09-21T02:54:14.597Z,18.11
2023-09-21T02:56:51.414Z,19.80
2023-09-21T02:59:24.333Z,19.39
2023-09-21T03:01:57.421Z,19.63
2023-09-21T03:04:29.644Z,18.76
2023-09-21T03:07:02.051Z,19.63
2023-09-21T03:09:34.316Z,18.42
2023-09-21T03:12:09.932Z,18.63
2023-09-21T03:14:42.247Z,18.64
2023-09-21T03:17:15.953Z,19.47
2023-09-21T03:19:50.384Z,18.99
2023-09-21T03:22:23.143Z,18.17
2023-09-21T03:24:58.434Z,17.77
2023-09-21T03:27:33.278Z,19.08
2023-09-21T03:30:07.223Z,17.49
2023-09-21T03:32:40.396Z,18.36
2023-09-21T03:35:13.471Z,17.29
2023-09-21T03:37:46.854Z,18.43
2023-09-21T03:40:19.656Z,18.98
2023-09-21T03:42:56.495Z,17.98
2023-09-21T03:45:29.189Z,18.38
2023-09-21T03:48:07.014Z,17.29
2023-09-21T03:50:39.660Z,17.39
2023-09-21T03:53:12.796Z,17.47
2023-09-21T03:55:47.777Z,17.77
2023-09-21T03:58:22.803Z,17.95
2023-09-21T04:00:55.554Z,19.51
2023-09-21T04:03:28.061Z,17.67
2023-09-21T04:06:08.118Z,18.22
2023-09-21T04:08:40.585Z,18.49
2023-09-21T04:11:13.371Z,18.18
2023-09-21T04:13:48.374Z,17.74
2023-09-21T04:16:20.713Z,18.30
2023-09-21T04:18:53.017Z,17.36
2023-09-21T04:21:25.532Z,20.18
2023-09-21T04:23:57.943Z,18.96
2023-09-21T04:26:30.284Z,17.87
2023-09-21T04:29:04.872Z,17.91
2023-09-21T04:31:37.279Z,18.38
2023-09-21T04:34:09.702Z,15.99
2023-09-21T04:36:41.972Z,18.41
2023-09-21T04:39:16.580Z,18.93
2023-09-21T04:41:49.352Z,18.51
2023-09-21T04:44:24.295Z,19.14
2023-09-21T04:46:57.426Z,18.19
2023-09-21T04:49:29.717Z,20.29
2023-09-21T04:52:05.468Z,17.95
2023-09-21T04:54:37.706Z,18.36
2023-09-21T04:57:10.377Z,19.29
2023-09-21T04:59:45.297Z,18.71
2023-09-21T05:02:17.683Z,18.49
2023-09-21T05:04:52.376Z,20.74
2023-09-21T05:07:25.416Z,19.06
2023-09-21T05:09:57.886Z,19.33
2023-09-21T05:12:30.220Z,19.56
2023-09-21T05:15:08.300Z,18.64
2023-09-21T05:17:41.477Z,20.17
2023-09-21T05:20:14.485Z,19.42
2023-09-21T05:22:46.909Z,20.06
2023-09-21T05:25:19.316Z,19.19
2023-09-21T05:27:51.584Z,19.64
2023-09-21T05:30:29.936Z,20.68
2023-09-21T05:33:04.321Z,20.39
2023-09-21T05:35:36.980Z,20.49
2023-09-21T05:38:09.344Z,20.79
2023-09-21T05:40:41.841Z,19.88
2023-09-21T05:43:14.553Z,19.25
2023-09-21T05:45:49.802Z,18.83
2023-09-21T05:48:22.144Z,20.07
2023-09-21T05:50:55.409Z,19.31
2023-09-21T05:53:27.810Z,20.62
2023-09-21T05:56:00.132Z,20.21
2023-09-21T05:58:33.656Z,20.12
2023-09-21T06:01:09.388Z,19.84
2023-09-21T06:03:42.598Z,20.49
2023-09-21T06:06:16.208Z,22.11
2023-09-21T06:08:50.084Z,20.99
2023-09-21T06:11:22.369Z,21.96
2023-09-21T06:13:55.164Z,22.21
2023-09-21T06:16:30.537Z,21.58
2023-09-21T06:19:02.877Z,20.21
2023-09-21T06:21:36.970Z,19.33
2023-09-21T06:24:10.210Z,23.42
2023-09-21T06:26:43.168Z,21.54
2023-09-21T06:29:15.448Z,23.03
2023-09-21T06:32:09.388Z,20.99
2023-09-21T06:34:44.381Z,19.69
2023-09-21T06:37:19.826Z,21.67
2023-09-21T06:39:52.062Z,21.76
2023-09-21T06:42:24.551Z,20.40
2023-09-21T06:44:57.585Z,20.58
2023-09-21T06:47:32.522Z,22.59
2023-09-21T06:50:04.779Z,20.93
2023-09-21T06:52:37.323Z,21.46
2023-09-21T06:55:10.016Z,21.38
2023-09-21T06:57:42.330Z,20.34
2023-09-21T07:00:16.419Z,22.73
2023-09-21T07:02:51.474Z,21.69
2023-09-21T07:05:24.119Z,20.10
2023-09-21T07:07:56.519Z,21.88
2023-09-21T07:10:29.046Z,22.51
2023-09-21T07:13:01.376Z,19.63
2023-09-21T07:15:33.668Z,14.36
2023-09-21T07:18:10.850Z,9.38
2023-09-21T07:20:43.265Z,7.83
2023-09-21T07:23:15.549Z,7.70
2023-09-21T07:25:47.810Z,7.22
2023-09-21T07:28:20.220Z,6.83
2023-09-21T07:30:56.483Z,6.61
2023-09-21T07:33:33.656Z,6.04
2023-09-21T07:36:07.687Z,4.64
2023-09-21T07:38:40.076Z,5.16
2023-09-21T07:41:14.589Z,5.84
2023-09-21T07:43:47.006Z,6.55
2023-09-21T07:46:19.519Z,5.42
2023-09-21T07:48:54.916Z,5.96
2023-09-21T07:51:27.905Z,6.36
2023-09-21T07:54:02.022Z,6.20
2023-09-21T07:56:37.612Z,6.11
2023-09-21T07:59:11.291Z,5.99
2023-09-21T08:01:43.537Z,5.99
2023-09-21T08:04:21.754Z,5.57
2023-09-21T08:06:57.924Z,5.44
2023-09-21T08:09:37.484Z,5.88
2023-09-21T08:12:10.809Z,6.30
2023-09-21T08:14:43.109Z,6.29
2023-09-21T08:17:15.386Z,6.36
2023-09-21T08:19:50.794Z,6.66
2023-09-21T08:22:23.514Z,6.66
2023-09-21T08:24:56.904Z,6.21
2023-09-21T08:27:30.751Z,5.65
2023-09-21T08:30:05.406Z,6.04
2023-09-21T08:32:38.034Z,6.69
2023-09-21T08:35:17.659Z,6.89
2023-09-21T08:37:51.637Z,6.44
2023-09-21T08:40:27.344Z,6.67
2023-09-21T08:43:01.220Z,6.70
2023-09-21T08:45:34.654Z,6.40
2023-09-21T08:48:07.886Z,6.76
2023-09-21T08:50:45.461Z,6.11
2023-09-21T08:53:24.669Z,7.44
2023-09-21T08:56:03.693Z,7.43
2023-09-21T08:58:42.922Z,7.01
2023-09-21T09:01:17.247Z,7.78
2023-09-21T09:03:50.845Z,6.32
2023-09-21T09:06:26.112Z,7.71
2023-09-21T09:08:58.568Z,8.15
2023-09-21T09:11:46.540Z,7.31
2023-09-21T09:14:21.036Z,7.83
2023-09-21T09:16:53.451Z,7.60
2023-09-21T09:19:25.816Z,7.00
2023-09-21T09:22:01.977Z,7.09
2023-09-21T09:24:36.645Z,6.44
2023-09-21T09:27:10.117Z,7.65
2023-09-21T09:29:53.250Z,6.76
2023-09-21T09:32:30.411Z,6.73
2023-09-21T09:35:03.598Z,7.58
2023-09-21T09:37:38.915Z,8.55
2023-09-21T09:40:14.097Z,8.78
2023-09-21T09:42:47.998Z,8.80
2023-09-21T09:45:23.550Z,9.24
2023-09-21T09:47:59.217Z,8.84
2023-09-21T09:50:37.285Z,7.86
2023-09-21T09:53:15.019Z,8.51
2023-09-21T09:55:50.429Z,8.30
2023-09-21T09:58:26.395Z,8.36
2023-09-21T10:01:02.260Z,8.46
2023-09-21T10:03:36.843Z,8.34
2023-09-21T10:06:11.386Z,9.29
2023-09-21T10:08:47.977Z,9.39
2023-09-21T10:11:23.196Z,9.81
2023-09-21T10:13:57.898Z,9.54
2023-09-21T10:16:32.834Z,8.37
2023-09-21T10:19:07.596Z,7.79
2023-09-21T10:21:44.532Z,9.09
2023-09-21T10:24:27.709Z,8.51
2023-09-21T10:27:04.756Z,7.01
2023-09-21T10:29:41.087Z,7.96
2023-09-21T10:32:13.436Z,9.84
2023-09-21T10:34:50.344Z,10.24
2023-09-21T10:37:30.746Z,9.50
2023-09-21T10:40:09.585Z,10.24
2023-09-21T10:42:42.608Z,11.67
2023-09-21T10:45:15.382Z,10.76
2023-09-21T10:47:53.638Z,10.96
2023-09-21T10:50:27.986Z,10.61
2023-09-21T10:53:02.258Z,9.82
2023-09-21T10:55:37.930Z,9.31
2023-09-21T10:58:10.279Z,8.79
2023-09-21T11:00:42.775Z,7.81
2023-09-21T11:03:17.328Z,8.58
2023-09-21T11:05:50.021Z,7.29
2023-09-21T11:08:23.040Z,6.54
2023-09-21T11:10:58.028Z,6.60
2023-09-21T11:13:30.688Z,8.11
2023-09-21T11:16:03.301Z,7.09
2023-09-21T11:18:35.807Z,7.44
2023-09-21T11:21:10.263Z,6.76
2023-09-21T11:23:44.937Z,7.87
2023-09-21T11:26:20.589Z,8.14
2023-09-21T11:28:59.818Z,8.01
2023-09-21T11:31:32.678Z,7.78
2023-09-21T11:34:09.226Z,7.58
2023-09-21T11:36:41.952Z,8.04
2023-09-21T11:39:15.604Z,7.15
2023-09-21T11:41:52.626Z,6.77
2023-09-21T11:44:26.613Z,7.58
2023-09-21T11:47:03.046Z,7.24
2023-09-21T11:49:43.090Z,7.96
2023-09-21T11:52:17.728Z,7.58
2023-09-21T11:54:50.461Z,8.21
2023-09-21T11:57:25.674Z,7.76
2023-09-21T12:00:00.492Z,8.05
2023-09-21T12:02:33.057Z,8.63
2023-09-21T12:05:12.441Z,8.78
2023-09-21T12:07:45.479Z,9.68
2023-09-21T12:10:18.053Z,8.82
2023-09-21T12:12:53.549Z,9.46
2023-09-21T12:15:25.984Z,7.04
2023-09-21T12:17:58.356Z,7.25
2023-09-21T12:20:30.692Z,6.84
2023-09-21T12:23:03.666Z,6.62
2023-09-21T12:25:39.089Z,6.84
2023-09-21T12:28:13.977Z,6.61
2023-09-21T12:30:48.847Z,7.78
2023-09-21T12:33:41.180Z,8.01
2023-09-21T12:36:26.904Z,9.51
2023-09-21T12:39:10.725Z,10.41
2023-09-21T12:41:44.767Z,8.93
2023-09-21T12:44:20.332Z,9.29
2023-09-21T12:46:52.646Z,9.03
2023-09-21T12:49:25.221Z,9.89
2023-09-21T12:51:58.275Z,10.08
2023-09-21T12:54:33.635Z,9.39
2023-09-21T12:57:06.204Z,10.44
2023-09-21T12:59:41.241Z,9.54
2023-09-21T13:02:16.356Z,10.64
2023-09-21T13:04:48.999Z,10.68
2023-09-21T13:07:21.386Z,11.85
2023-09-21T13:09:53.983Z,11.19
2023-09-21T13:12:26.838Z,10.84
2023-09-21T13:15:02.411Z,12.22
2023-09-21T13:17:36.270Z,12.43
2023-09-21T13:20:10.329Z,11.60
2023-09-21T13:22:42.962Z,11.83
2023-09-21T13:25:15.566Z,10.38
2023-09-21T13:27:48.131Z,10.03
2023-09-21T13:30:23.248Z,9.77
2023-09-21T13:32:55.826Z,9.42
2023-09-21T13:35:28.133Z,11.09
2023-09-21T13:38:01.401Z,10.91
2023-09-21T13:40:33.672Z,12.56
2023-09-21T13:43:06.744Z,12.88
2023-09-21T13:45:43.239Z,12.31
2023-09-21T13:48:16.856Z,13.09
2023-09-21T13:50:51.584Z,15.10
2023-09-21T13:53:24.144Z,14.50
2023-09-21T13:55:56.460Z,15.63
2023-09-21T13:58:28.721Z,14.55
2023-09-21T14:01:04.692Z,14.80
2023-09-21T14:03:39.589Z,12.39
2023-09-21T14:06:12.262Z,10.85
2023-09-21T14:08:44.824Z,12.06
2023-09-21T14:11:18.321Z,12.81
2023-09-21T14:13:50.762Z,14.99
2023-09-21T14:16:26.044Z,18.54
2023-09-21T14:18:58.570Z,19.31
2023-09-21T14:21:32.804Z,20.81
2023-09-21T14:24:05.287Z,19.26
2023-09-21T14:26:37.661Z,19.15
2023-09-21T14:29:10.005Z,19.21
2023-09-21T14:31:45.308Z,21.52
2023-09-21T14:34:17.788Z,16.70
2023-09-21T14:36:50.341Z,17.48
2023-09-21T14:39:22.686Z,16.66
2023-09-21T14:41:55.341Z,15.76
2023-09-21T14:44:27.595Z,14.25
2023-09-21T14:47:02.537Z,13.80
2023-09-21T14:49:34.972Z,15.48
2023-09-21T14:52:07.312Z,14.39
2023-09-21T14:54:39.625Z,15.34
2023-09-21T14:57:12.133Z,13.97
2023-09-21T14:59:45.264Z,15.64
2023-09-21T15:02:20.179Z,14.23
2023-09-21T15:04:52.563Z,14.33
2023-09-21T15:07:24.918Z,15.01
2023-09-21T15:09:59.022Z,15.59
2023-09-21T15:12:31.595Z,15.49
2023-09-21T15:15:04.165Z,15.74
2023-09-21T15:17:39.625Z,15.66
2023-09-21T15:20:13.868Z,14.65
2023-09-21T15:22:46.253Z,13.74
2023-09-21T15:25:18.648Z,15.36
2023-09-21T15:27:51.051Z,14.11
2023-09-21T15:30:23.475Z,14.20
2023-09-21T15:32:58.852Z,15.87
2023-09-21T15:35:32.566Z,15.21
2023-09-21T15:38:04.866Z,15.90
2023-09-21T15:40:37.204Z,14.26
2023-09-21T15:43:09.684Z,14.01
2023-09-21T15:45:42.522Z,12.19
2023-09-21T15:48:18.120Z,11.86
2023-09-21T15:50:50.659Z,11.70
2023-09-21T15:53:23.942Z,11.41
2023-09-21T15:55:57.845Z,11.75
2023-09-21T15:58:31.478Z,11.81
2023-09-21T16:01:03.987Z,11.41
2023-09-21T16:03:39.589Z,12.14
2023-09-21T16:06:12.084Z,12.04
2023-09-21T16:08:44.881Z,14.65
2023-09-21T16:11:18.768Z,14.24
2023-09-21T16:13:51.989Z,15.85
2023-09-21T16:16:24.434Z,14.29
2023-09-21T16:18:59.331Z,12.34
2023-09-21T16:21:34.038Z,14.69
2023-09-21T16:24:06.958Z,13.96
2023-09-21T16:26:39.308Z,14.16
2023-09-21T16:29:11.894Z,14.41
2023-09-21T16:31:44.549Z,13.96
2023-09-21T16:34:20.708Z,12.29
2023-09-21T16:36:53.018Z,12.44
2023-09-21T16:39:26.043Z,14.11
2023-09-21T16:41:58.465Z,14.92
2023-09-21T16:44:31.979Z,13.84
2023-09-21T16:47:04.271Z,14.66
2023-09-21T16:49:39.216Z,17.11
2023-09-21T16:52:11.512Z,17.64
2023-09-21T16:54:44.800Z,16.07
2023-09-21T16:57:17.104Z,16.81
2023-09-21T16:59:49.382Z,16.69
2023-09-21T17:02:23.163Z,16.49
2023-09-21T17:04:58.120Z,17.26
2023-09-21T17:07:30.491Z,16.80
2023-09-21T17:10:02.900Z,28.41
2023-09-21T17:12:35.513Z,64.12
2023-09-21T17:15:08.143Z,49.13
2023-09-21T17:17:42.275Z,49.26
2023-09-21T17:20:18.629Z,36.91
2023-09-21T17:22:51.218Z,31.66
2023-09-21T17:25:24.654Z,41.21
2023-09-21T17:27:56.891Z,42.96
2023-09-21T17:30:29.939Z,38.01
2023-09-21T17:33:02.386Z,24.39
2023-09-21T17:35:37.609Z,20.71
2023-09-21T17:38:12.066Z,20.93
2023-09-21T17:40:44.469Z,21.67
2023-09-21T17:43:16.961Z,19.75
2023-09-21T17:45:49.344Z,22.01
2023-09-21T17:48:29.507Z,21.25
2023-09-21T17:51:07.332Z,21.16
2023-09-21T17:53:40.253Z,24.17
2023-09-21T17:56:12.637Z,24.39
2023-09-21T17:58:45.221Z,24.61
2023-09-21T18:01:18.003Z,22.69
2023-09-21T18:03:51.379Z,33.45
2023-09-21T18:06:26.624Z,37.31
2023-09-21T18:08:59.049Z,31.13
2023-09-21T18:11:31.421Z,31.53
2023-09-21T18:14:03.720Z,30.90
2023-09-21T18:16:36.329Z,32.48
2023-09-21T18:19:08.930Z,31.79
2023-09-21T18:21:45.390Z,33.46
2023-09-21T18:24:18.100Z,34.05
2023-09-21T18:26:50.374Z,44.36
2023-09-21T18:29:22.981Z,53.38
2023-09-21T18:31:58.745Z,49.80
2023-09-21T18:34:31.159Z,45.79
2023-09-21T18:37:06.375Z,42.75
2023-09-21T18:39:38.683Z,41.07
2023-09-21T18:42:11.149Z,41.44
2023-09-21T18:44:43.451Z,39.88
2023-09-21T18:47:15.745Z,40.82
2023-09-21T18:49:48.767Z,42.59
2023-09-21T18:52:23.695Z,41.05
2023-09-21T18:54:55.976Z,45.84
2023-09-21T18:57:28.662Z,56.82
2023-09-21T19:00:00.950Z,57.19
2023-09-21T19:02:34.336Z,56.39
2023-09-21T19:05:06.919Z,62.39
2023-09-21T19:07:41.878Z,56.25
2023-09-21T19:10:15.192Z,59.67
2023-09-21T19:12:47.869Z,61.96
2023-09-21T19:15:21.235Z,68.72
2023-09-21T19:17:53.620Z,69.99
2023-09-21T19:20:25.928Z,67.40
2023-09-21T19:23:03.036Z,67.86
2023-09-21T19:25:38.141Z,65.96
2023-09-21T19:28:10.692Z,67.68
2023-09-21T19:30:45.249Z,68.91
2023-09-21T19:33:17.937Z,69.87
2023-09-21T19:35:51.054Z,74.48
2023-09-21T19:38:26.155Z,73.09
2023-09-21T19:40:58.540Z,80.51
2023-09-21T19:43:31.726Z,82.79
2023-09-21T19:46:07.025Z,73.66
2023-09-21T19:48:39.974Z,72.30
2023-09-21T19:51:12.590Z,68.60
2023-09-21T19:53:48.470Z,76.99
2023-09-21T19:56:20.939Z,71.61
2023-09-21T19:58:53.260Z,76.49
2023-09-21T20:01:28.504Z,75.66
2023-09-21T20:04:01.081Z,76.42
2023-09-21T20:06:33.542Z,76.55
2023-09-21T20:09:09.075Z,78.17
2023-09-21T20:11:41.760Z,83.53
2023-09-21T20:14:14.204Z,80.60
2023-09-21T20:16:46.751Z,81.58
2023-09-21T20:19:19.056Z,85.39
2023-09-21T20:21:51.809Z,81.09
2023-09-21T20:24:26.737Z,79.06
2023-09-21T20:26:59.343Z,85.12
2023-09-21T20:29:32.763Z,82.49
2023-09-21T20:32:09.370Z,79.64
2023-09-21T20:34:41.840Z,85.08
2023-09-21T20:37:15.969Z,85.64
2023-09-21T20:39:51.478Z,79.82
2023-09-21T20:42:24.003Z,78.32
2023-09-21T20:44:56.391Z,83.66
2023-09-21T20:47:29.165Z,80.10
2023-09-21T20:50:01.489Z,75.69
2023-09-21T20:52:34.549Z,79.19
2023-09-21T20:55:10.384Z,76.10
2023-09-21T20:57:42.688Z,74.81
2023-09-21T21:00:16.435Z,75.58
2023-09-21T21:02:52.400Z,71.84
2023-09-21T21:05:24.970Z,71.76
2023-09-21T21:07:57.283Z,73.02
2023-09-21T21:10:33.007Z,66.16
2023-09-21T21:13:05.486Z,70.81
2023-09-21T21:15:37.875Z,67.06
2023-09-21T21:18:10.800Z,64.05
2023-09-21T21:20:45.723Z,62.42
2023-09-21T21:23:18.282Z,61.03
2023-09-21T21:25:53.199Z,57.39
2023-09-21T21:28:25.504Z,53.05
2023-09-21T21:30:57.815Z,57.80
2023-09-21T21:33:30.435Z,53.16
2023-09-21T21:36:02.782Z,55.04
2023-09-21T21:38:35.063Z,52.15
2023-09-21T21:41:10.909Z,45.24
2023-09-21T21:43:43.606Z,46.11
2023-09-21T21:46:16.165Z,45.61
2023-09-21T21:48:48.559Z,44.76
2023-09-21T21:51:20.886Z,44.86
2023-09-21T21:53:53.260Z,46.49
2023-09-21T21:56:28.115Z,43.99
2023-09-21T21:59:01.584Z,44.34
2023-09-21T22:01:34.042Z,44.74
2023-09-21T22:04:06.546Z,46.56
2023-09-21T22:06:38.983Z,49.64
2023-09-21T22:09:11.842Z,48.56
2023-09-21T22:11:49.056Z,50.15
2023-09-21T22:14:21.567Z,51.98
2023-09-21T22:16:54.026Z,57.46
2023-09-21T22:19:26.435Z,57.64
2023-09-21T22:21:58.825Z,65.02
2023-09-21T22:24:31.817Z,68.16
2023-09-21T22:27:08.730Z,72.11
2023-09-21T22:29:38.458Z,72.21
2023-09-21T22:32:12.157Z,75.14
2023-09-21T22:34:44.527Z,79.46
2023-09-21T22:37:16.820Z,84.26
2023-09-21T22:39:49.126Z,83.09
2023-09-21T22:42:26.645Z,83.87
2023-09-21T22:45:05.351Z,87.59
2023-09-21T22:47:37.754Z,87.31
2023-09-21T22:50:15.325Z,84.56
2023-09-21T22:52:49.527Z,88.04
2023-09-21T22:55:22.663Z,89.46
2023-09-21T22:57:57.934Z,90.28
2023-09-21T23:00:30.731Z,91.44
2023-09-21T23:03:04.640Z,89.84
2023-09-21T23:05:37.154Z,92.42
2023-09-21T23:08:10.372Z,95.00
2023-09-21T23:10:42.823Z,94.17
2023-09-21T23:13:18.370Z,94.79
2023-09-21T23:15:51.099Z,99.38
2023-09-21T23:18:24.398Z,99.45
2023-09-21T23:20:56.704Z,93.54
2023-09-21T23:23:29.226Z,94.56
2023-09-21T23:26:04.733Z,91.21
2023-09-21T23:28:40.050Z,70.73
2023-09-21T23:31:12.734Z,63.76
2023-09-21T23:33:47.200Z,52.26
2023-09-21T23:36:19.802Z,52.76
2023-09-21T23:38:52.174Z,49.54
2023-09-21T23:41:27.538Z,42.97
2023-09-21T23:44:02.571Z,42.07
2023-09-21T23:46:38.849Z,42.64
2023-09-21T23:49:11.919Z,37.04
2023-09-21T23:51:44.245Z,32.32
2023-09-21T23:54:17.199Z,29.34
2023-09-21T23:56:49.453Z,26.09
2023-09-21T23:59:24.373Z,26.27
